createdAt,value
2023-03-29T00:01:02.616Z,99176.11
2023-03-29T00:03:09.477Z,99179.36
2023-03-29T00:05:13.393Z,99178.98
2023-03-29T00:07:20.683Z,99173.71
2023-03-29T00:09:26.675Z,99163.31
2023-03-29T00:11:31.360Z,99167.64
2023-03-29T00:13:35.117Z,99190.88
2023-03-29T00:15:42.877Z,99193.77
2023-03-29T00:17:47.598Z,99193.82
2023-03-29T00:19:53.051Z,99189.97
2023-03-29T00:21:56.196Z,99192.44
2023-03-29T00:24:01.456Z,99192.80
2023-03-29T00:26:07.168Z,99186.54
2023-03-29T00:28:10.512Z,99179.27
2023-03-29T00:30:15.037Z,99176.17
2023-03-29T00:32:20.851Z,99169.00
2023-03-29T00:34:25.894Z,99166.50
2023-03-29T00:36:33.403Z,99158.59
2023-03-29T00:38:38.842Z,99152.13
2023-03-29T00:40:47.125Z,99144.23
2023-03-29T00:42:50.244Z,99140.12
2023-03-29T00:45:07.836Z,99132.75
2023-03-29T00:47:11.979Z,99126.48
2023-03-29T00:49:15.614Z,99120.40
2023-03-29T00:51:24.910Z,99117.08
2023-03-29T00:53:36.834Z,99120.25
2023-03-29T00:55:54.473Z,99121.45
2023-03-29T00:58:01.016Z,99122.64
2023-03-29T01:00:10.523Z,99122.30
2023-03-29T01:02:16.630Z,99122.77
2023-03-29T01:04:34.001Z,99117.69
2023-03-29T01:06:44.376Z,99113.85
2023-03-29T01:08:53.337Z,99110.45
2023-03-29T01:11:15.999Z,99103.85
2023-03-29T01:13:27.488Z,99099.48
2023-03-29T01:15:32.125Z,99096.62
2023-03-29T01:17:35.813Z,99093.04
2023-03-29T01:19:48.620Z,99090.86
2023-03-29T01:22:07.461Z,99085.50
2023-03-29T01:24:13.373Z,99079.22
2023-03-29T01:26:31.733Z,99078.38
2023-03-29T01:28:48.373Z,99075.96
2023-03-29T01:30:57.398Z,99074.09
2023-03-29T01:33:24.033Z,99075.58
2023-03-29T01:35:49.558Z,99065.76
2023-03-29T01:38:14.444Z,99059.14
2023-03-29T01:40:24.458Z,99056.94
2023-03-29T01:42:42.374Z,99048.80
2023-03-29T01:45:32.005Z,99046.84
2023-03-29T01:47:54.738Z,99042.30
2023-03-29T01:50:17.993Z,99042.62
2023-03-29T01:52:32.176Z,99040.65
2023-03-29T01:54:54.949Z,99036.00
2023-03-29T01:56:59.328Z,99032.77
2023-03-29T01:59:13.154Z,99036.15
2023-03-29T02:01:24.244Z,99039.05
2023-03-29T02:03:42.723Z,99037.73
2023-03-29T02:05:47.731Z,99041.28
2023-03-29T02:07:54.768Z,99038.39
2023-03-29T02:09:59.516Z,99037.84
2023-03-29T02:12:06.784Z,99032.85
2023-03-29T02:14:12.614Z,99029.42
2023-03-29T02:16:16.720Z,99033.58
2023-03-29T02:18:20.169Z,99033.27
2023-03-29T02:20:33.694Z,99032.52
2023-03-29T02:22:45.801Z,99027.91
2023-03-29T02:24:59.060Z,99022.73
2023-03-29T02:27:03.909Z,99022.97
2023-03-29T02:29:08.980Z,99020.23
2023-03-29T02:31:29.498Z,99014.73
2023-03-29T02:33:45.713Z,99011.86
2023-03-29T02:36:13.464Z,99006.05
2023-03-29T02:38:17.791Z,98998.89
2023-03-29T02:40:26.138Z,98999.08
2023-03-29T02:42:33.318Z,98991.25
2023-03-29T02:44:41.710Z,98993.74
2023-03-29T02:46:51.061Z,98997.31
2023-03-29T02:48:57.640Z,98993.31
2023-03-29T02:51:03.316Z,98993.01
2023-03-29T02:53:13.064Z,98991.23
2023-03-29T02:55:23.192Z,98976.25
2023-03-29T02:57:30.944Z,98974.37
2023-03-29T02:59:35.455Z,98968.77
2023-03-29T03:01:43.082Z,98959.59
2023-03-29T03:03:47.863Z,98955.73
2023-03-29T03:05:52.459Z,98949.59
2023-03-29T03:07:59.020Z,98944.25
2023-03-29T03:10:03.864Z,98951.46
2023-03-29T03:12:09.551Z,98948.23
2023-03-29T03:14:13.665Z,98939.05
2023-03-29T03:16:20.332Z,98936.27
2023-03-29T03:18:24.352Z,98942.12
2023-03-29T03:20:31.344Z,98953.66
2023-03-29T03:22:35.684Z,98962.36
2023-03-29T03:24:40.504Z,98962.56
2023-03-29T03:26:46.382Z,98962.49
2023-03-29T03:28:51.134Z,98962.34
2023-03-29T03:31:17.595Z,98964.16
2023-03-29T03:33:42.484Z,98962.70
2023-03-29T03:35:46.723Z,98961.23
2023-03-29T03:37:51.722Z,98963.77
2023-03-29T03:40:00.817Z,98961.80
2023-03-29T03:42:08.580Z,98953.60
2023-03-29T03:44:16.574Z,98944.73
2023-03-29T03:46:20.458Z,98939.41
2023-03-29T03:48:25.507Z,98934.71
2023-03-29T03:50:55.297Z,98930.02
2023-03-29T03:52:58.909Z,98927.00
2023-03-29T03:55:07.518Z,98922.82
2023-03-29T03:57:33.377Z,98925.09
2023-03-29T03:59:37.156Z,98930.29
2023-03-29T04:01:44.953Z,98927.83
2023-03-29T04:03:52.079Z,98926.53
2023-03-29T04:05:56.603Z,98925.73
2023-03-29T04:08:00.774Z,98923.60
2023-03-29T04:10:22.720Z,98922.09
2023-03-29T04:12:47.667Z,98924.30
2023-03-29T04:14:50.843Z,98923.94
2023-03-29T04:16:59.067Z,98925.80
2023-03-29T04:19:20.224Z,98922.64
2023-03-29T04:21:24.098Z,98924.31
2023-03-29T04:23:26.782Z,98927.98
2023-03-29T04:25:30.945Z,98930.98
2023-03-29T04:28:13.520Z,98926.09
2023-03-29T04:30:27.818Z,98922.20
2023-03-29T04:32:54.517Z,98914.63
2023-03-29T04:35:02.660Z,98909.09
2023-03-29T04:37:10.885Z,98909.70
2023-03-29T04:39:14.867Z,98913.36
2023-03-29T04:41:28.925Z,98917.73
2023-03-29T04:43:56.184Z,98914.87
2023-03-29T04:46:04.460Z,98915.31
2023-03-29T04:48:37.454Z,98910.35
2023-03-29T04:50:47.524Z,98905.66
2023-03-29T04:52:53.075Z,98905.11
2023-03-29T04:54:56.565Z,98902.81
2023-03-29T04:57:09.728Z,98902.19
2023-03-29T04:59:15.474Z,98900.65
2023-03-29T05:01:18.208Z,98905.45
2023-03-29T05:03:31.300Z,98902.85
2023-03-29T05:05:44.021Z,98907.39
2023-03-29T05:07:47.064Z,98914.30
2023-03-29T05:09:51.532Z,98917.77
2023-03-29T05:11:56.765Z,98915.04
2023-03-29T05:14:03.521Z,98913.34
2023-03-29T05:16:11.266Z,98918.52
2023-03-29T05:18:15.323Z,98918.83
2023-03-29T05:20:19.880Z,98914.05
2023-03-29T05:22:23.545Z,98914.48
2023-03-29T05:24:30.001Z,98910.59
2023-03-29T05:26:41.527Z,98914.30
2023-03-29T05:28:45.024Z,98912.70
2023-03-29T05:30:48.804Z,98904.53
2023-03-29T05:33:07.779Z,98899.08
2023-03-29T05:35:13.475Z,98900.60
2023-03-29T05:37:16.464Z,98903.50
2023-03-29T05:39:37.142Z,98902.61
2023-03-29T05:41:43.351Z,98902.05
2023-03-29T05:44:12.953Z,98897.82
2023-03-29T05:46:19.784Z,98891.89
2023-03-29T05:48:28.590Z,98885.91
2023-03-29T05:50:31.997Z,98884.56
2023-03-29T05:52:37.735Z,98889.27
2023-03-29T05:54:43.312Z,98887.90
2023-03-29T05:56:48.441Z,98885.39
2023-03-29T05:58:54.942Z,98889.59
2023-03-29T06:01:01.122Z,98893.13
2023-03-29T06:03:36.926Z,98886.84
2023-03-29T06:05:42.754Z,98887.54
2023-03-29T06:07:47.076Z,98881.83
2023-03-29T06:10:09.727Z,98879.85
2023-03-29T06:12:14.042Z,98879.32
2023-03-29T06:14:30.286Z,98880.93
2023-03-29T06:17:03.767Z,98882.62
2023-03-29T06:19:07.806Z,98877.81
2023-03-29T06:21:11.376Z,98877.52
2023-03-29T06:23:16.274Z,98880.27
2023-03-29T06:25:23.916Z,98875.52
2023-03-29T06:27:33.072Z,98875.42
2023-03-29T06:29:35.913Z,98868.84
2023-03-29T06:31:42.209Z,98871.41
2023-03-29T06:33:47.815Z,98875.27
2023-03-29T06:36:08.663Z,98871.96
2023-03-29T06:38:13.839Z,98875.17
2023-03-29T06:40:45.519Z,98873.33
2023-03-29T06:42:58.278Z,98868.84
2023-03-29T06:45:34.703Z,98867.22
2023-03-29T06:47:40.748Z,98870.89
2023-03-29T06:49:46.209Z,98872.86
2023-03-29T06:52:24.776Z,98871.34
2023-03-29T06:54:27.450Z,98878.27
2023-03-29T06:56:38.205Z,98881.21
2023-03-29T06:58:45.161Z,98880.35
2023-03-29T07:01:08.271Z,98876.98
2023-03-29T07:03:36.497Z,98884.60
2023-03-29T07:05:42.443Z,98884.59
2023-03-29T07:07:57.238Z,98886.79
2023-03-29T07:10:07.371Z,98880.81
2023-03-29T07:12:32.617Z,98877.92
2023-03-29T07:14:37.729Z,98872.27
2023-03-29T07:16:43.407Z,98871.73
2023-03-29T07:18:58.809Z,98876.46
2023-03-29T07:21:25.501Z,98880.80
2023-03-29T07:23:29.125Z,98882.79
2023-03-29T07:25:34.983Z,98887.44
2023-03-29T07:27:41.044Z,98890.95
2023-03-29T07:29:46.758Z,98891.16
2023-03-29T07:31:52.802Z,98896.66
2023-03-29T07:34:25.518Z,98896.73
2023-03-29T07:36:28.593Z,98894.10
2023-03-29T07:38:32.486Z,98890.69
2023-03-29T07:40:41.263Z,98886.79
2023-03-29T07:43:08.113Z,98885.77
2023-03-29T07:45:13.832Z,98887.58
2023-03-29T07:47:28.371Z,98884.65
2023-03-29T07:49:31.445Z,98884.64
2023-03-29T07:51:38.062Z,98881.63
2023-03-29T07:53:47.369Z,98884.27
2023-03-29T07:56:12.007Z,98877.08
2023-03-29T07:58:24.027Z,98876.73
2023-03-29T08:00:28.503Z,98876.84
2023-03-29T08:02:52.647Z,98876.50
2023-03-29T08:04:57.064Z,98876.19
2023-03-29T08:07:21.870Z,98877.45
2023-03-29T08:09:43.480Z,98874.45
2023-03-29T08:11:47.682Z,98866.45
2023-03-29T08:13:56.279Z,98870.06
2023-03-29T08:16:17.714Z,98875.14
2023-03-29T08:18:27.754Z,98882.27
2023-03-29T08:20:33.302Z,98881.39
2023-03-29T08:22:40.532Z,98882.14
2023-03-29T08:24:45.064Z,98880.53
2023-03-29T08:26:49.824Z,98881.77
2023-03-29T08:28:59.792Z,98885.73
2023-03-29T08:31:05.394Z,98883.12
2023-03-29T08:33:16.098Z,98874.84
2023-03-29T08:35:19.970Z,98876.53
2023-03-29T08:37:34.362Z,98881.33
2023-03-29T08:39:40.895Z,98873.38
2023-03-29T08:42:17.065Z,98872.95
2023-03-29T08:44:37.859Z,98872.43
2023-03-29T08:47:15.390Z,98869.91
2023-03-29T08:49:22.647Z,98866.04
2023-03-29T08:51:33.807Z,98868.13
2023-03-29T08:53:45.062Z,98865.58
2023-03-29T08:55:56.666Z,98864.05
2023-03-29T08:58:35.693Z,98867.84
2023-03-29T09:00:44.577Z,98868.04
2023-03-29T09:02:52.139Z,98865.79
2023-03-29T09:05:04.685Z,98857.30
2023-03-29T09:07:23.529Z,98852.98
2023-03-29T09:09:34.737Z,98852.52
2023-03-29T09:11:46.661Z,98850.91
2023-03-29T09:13:59.337Z,98852.26
2023-03-29T09:16:34.291Z,98855.14
2023-03-29T09:19:02.578Z,98854.20
2023-03-29T09:21:31.100Z,98847.30
2023-03-29T09:23:48.776Z,98849.52
2023-03-29T09:26:34.825Z,98854.15
2023-03-29T09:28:57.775Z,98856.09
2023-03-29T09:31:12.299Z,98864.79
2023-03-29T09:33:37.176Z,98868.96
2023-03-29T09:35:57.075Z,98868.02
2023-03-29T09:38:07.286Z,98867.90
2023-03-29T09:40:17.286Z,98866.66
2023-03-29T09:42:30.061Z,98874.48
2023-03-29T09:44:41.526Z,98873.34
2023-03-29T09:46:56.105Z,98872.30
2023-03-29T09:49:02.031Z,98874.26
2023-03-29T09:51:07.579Z,98873.81
2023-03-29T09:53:15.758Z,98873.55
2023-03-29T09:55:27.411Z,98868.71
2023-03-29T09:57:35.454Z,98865.16
2023-03-29T09:59:40.912Z,98863.84
2023-03-29T10:01:49.847Z,98861.89
2023-03-29T10:03:57.161Z,98866.43
2023-03-29T10:06:03.499Z,98865.40
2023-03-29T10:08:29.974Z,98861.16
2023-03-29T10:10:36.790Z,98859.32
2023-03-29T10:12:44.828Z,98857.76
2023-03-29T10:14:54.890Z,98858.51
2023-03-29T10:16:58.843Z,98864.26
2023-03-29T10:19:33.843Z,98865.27
2023-03-29T10:21:38.206Z,98857.05
2023-03-29T10:23:48.959Z,98850.23
2023-03-29T10:25:53.154Z,98844.83
2023-03-29T10:28:19.073Z,98838.87
2023-03-29T10:30:25.488Z,98834.89
2023-03-29T10:32:35.383Z,98835.22
2023-03-29T10:34:40.842Z,98836.61
2023-03-29T10:36:59.227Z,98834.39
2023-03-29T10:39:05.890Z,98832.45
2023-03-29T10:41:14.568Z,98832.30
2023-03-29T10:43:26.160Z,98835.52
2023-03-29T10:45:35.287Z,98839.98
2023-03-29T10:47:38.572Z,98839.97
2023-03-29T10:49:50.880Z,98838.00
2023-03-29T10:51:55.373Z,98828.45
2023-03-29T10:53:59.429Z,98825.20
2023-03-29T10:56:08.209Z,98823.95
2023-03-29T10:58:21.186Z,98820.89
2023-03-29T11:00:33.443Z,98815.59
2023-03-29T11:02:48.673Z,98813.30
2023-03-29T11:05:09.065Z,98808.39
2023-03-29T11:07:41.114Z,98803.95
2023-03-29T11:10:15.449Z,98801.45
2023-03-29T11:12:35.340Z,98799.53
2023-03-29T11:14:53.144Z,98797.23
2023-03-29T11:17:03.230Z,98791.33
2023-03-29T11:19:13.468Z,98789.48
2023-03-29T11:21:17.902Z,98786.73
2023-03-29T11:24:05.373Z,98791.58
2023-03-29T11:26:20.746Z,98792.17
2023-03-29T11:28:37.473Z,98795.23
2023-03-29T11:30:46.028Z,98803.41
2023-03-29T11:33:07.550Z,98802.96
2023-03-29T11:35:29.849Z,98801.90
2023-03-29T11:37:51.983Z,98804.20
2023-03-29T11:40:05.873Z,98801.48
2023-03-29T11:42:17.820Z,98802.80
2023-03-29T11:44:23.896Z,98804.65
2023-03-29T11:46:58.667Z,98802.40
2023-03-29T11:49:32.946Z,98794.57
2023-03-29T11:51:41.397Z,98795.06
2023-03-29T11:53:53.297Z,98792.84
2023-03-29T11:55:57.419Z,98794.94
2023-03-29T11:58:07.805Z,98797.35
2023-03-29T12:00:24.124Z,98798.98
2023-03-29T12:02:39.815Z,98802.23
2023-03-29T12:04:48.520Z,98801.70
2023-03-29T12:07:12.642Z,98799.48
2023-03-29T12:09:44.846Z,98796.32
2023-03-29T12:12:01.804Z,98795.39
2023-03-29T12:14:21.325Z,98795.23
2023-03-29T12:16:25.008Z,98795.10
2023-03-29T12:18:34.057Z,98793.41
2023-03-29T12:20:39.924Z,98788.91
2023-03-29T12:22:49.060Z,98784.36
2023-03-29T12:24:54.005Z,98781.27
2023-03-29T12:27:01.318Z,98783.95
2023-03-29T12:29:43.870Z,98789.50
2023-03-29T12:31:52.461Z,98786.07
2023-03-29T12:34:24.545Z,98786.19
2023-03-29T12:36:51.902Z,98788.29
2023-03-29T12:39:21.581Z,98786.02
2023-03-29T12:41:45.626Z,98778.58
2023-03-29T12:44:27.215Z,98775.09
2023-03-29T12:46:40.175Z,98768.52
2023-03-29T12:48:46.061Z,98763.93
2023-03-29T12:50:52.365Z,98761.98
2023-03-29T12:53:15.603Z,98760.92
2023-03-29T12:55:33.441Z,98759.52
2023-03-29T12:57:45.360Z,98749.81
2023-03-29T12:59:52.083Z,98748.38
2023-03-29T13:02:05.483Z,98744.31
2023-03-29T13:04:19.558Z,98738.08
2023-03-29T13:06:34.549Z,98738.34
2023-03-29T13:08:48.479Z,98739.77
2023-03-29T13:10:58.482Z,98735.61
2023-03-29T13:13:14.626Z,98735.32
2023-03-29T13:15:18.228Z,98731.41
2023-03-29T13:17:40.234Z,98732.66
2023-03-29T13:20:01.612Z,98731.31
2023-03-29T13:22:25.451Z,98730.81
2023-03-29T13:25:11.340Z,98730.80
2023-03-29T13:27:42.298Z,98730.45
2023-03-29T13:30:21.165Z,98731.11
2023-03-29T13:32:50.727Z,98728.05
2023-03-29T13:35:11.761Z,98723.14
2023-03-29T13:37:33.632Z,98718.85
2023-03-29T13:39:48.157Z,98723.01
2023-03-29T13:41:54.338Z,98727.42
2023-03-29T13:43:57.879Z,98723.40
2023-03-29T13:46:00.605Z,98724.24
2023-03-29T13:48:24.961Z,98725.02
2023-03-29T13:50:53.867Z,98713.60
2023-03-29T13:53:06.233Z,98710.28
2023-03-29T13:55:17.983Z,98715.01
2023-03-29T13:57:25.455Z,98717.98
2023-03-29T13:59:43.639Z,98720.44
2023-03-29T14:01:53.378Z,98717.95
2023-03-29T14:04:01.641Z,98711.41
2023-03-29T14:06:08.360Z,98706.77
2023-03-29T14:08:21.609Z,98710.14
2023-03-29T14:10:33.475Z,98706.79
2023-03-29T14:12:41.830Z,98704.86
2023-03-29T14:14:56.032Z,98704.48
2023-03-29T14:17:02.282Z,98703.13
2023-03-29T14:19:14.154Z,98695.77
2023-03-29T14:21:18.713Z,98694.32
2023-03-29T14:23:27.814Z,98693.48
2023-03-29T14:25:32.265Z,98693.25
2023-03-29T14:27:45.070Z,98690.19
2023-03-29T14:29:53.826Z,98692.88
2023-03-29T14:32:09.315Z,98697.24
2023-03-29T14:34:16.832Z,98696.02
2023-03-29T14:36:21.972Z,98697.79
2023-03-29T14:38:27.036Z,98696.77
2023-03-29T14:40:33.377Z,98690.85
2023-03-29T14:42:39.810Z,98684.02
2023-03-29T14:44:44.321Z,98681.35
2023-03-29T14:46:50.443Z,98682.29
2023-03-29T14:48:56.728Z,98678.47
2023-03-29T14:51:00.648Z,98675.95
2023-03-29T14:53:04.054Z,98668.73
2023-03-29T14:55:07.489Z,98662.00
2023-03-29T14:57:20.730Z,98655.33
2023-03-29T14:59:28.723Z,98650.70
2023-03-29T15:01:31.922Z,98647.73
2023-03-29T15:03:54.100Z,98642.98
2023-03-29T15:06:03.752Z,98644.55
2023-03-29T15:08:14.232Z,98645.83
2023-03-29T15:10:19.300Z,98639.98
2023-03-29T15:12:23.759Z,98634.44
2023-03-29T15:14:31.478Z,98629.39
2023-03-29T15:16:38.691Z,98627.17
2023-03-29T15:18:44.170Z,98629.92
2023-03-29T15:20:48.488Z,98627.17
2023-03-29T15:23:18.519Z,98626.92
2023-03-29T15:25:24.686Z,98622.54
2023-03-29T15:27:39.603Z,98624.90
2023-03-29T15:29:46.768Z,98628.77
2023-03-29T15:31:58.966Z,98626.50
2023-03-29T15:34:08.500Z,98622.19
2023-03-29T15:36:17.140Z,98615.98
2023-03-29T15:38:27.655Z,98615.70
2023-03-29T15:40:37.654Z,98611.46
2023-03-29T15:42:43.009Z,98616.03
2023-03-29T15:44:48.519Z,98610.66
2023-03-29T15:46:55.377Z,98604.55
2023-03-29T15:48:59.391Z,98600.11
2023-03-29T15:51:05.485Z,98595.52
2023-03-29T15:53:15.577Z,98599.09
2023-03-29T15:55:22.544Z,98596.46
2023-03-29T15:57:28.391Z,98597.36
2023-03-29T15:59:33.325Z,98598.19
2023-03-29T16:01:38.914Z,98598.45
2023-03-29T16:03:41.665Z,98595.05
2023-03-29T16:05:45.624Z,98592.20
2023-03-29T16:07:48.299Z,98593.61
2023-03-29T16:09:51.026Z,98589.73
2023-03-29T16:11:56.094Z,98587.56
2023-03-29T16:13:59.574Z,98589.18
2023-03-29T16:16:10.269Z,98588.67
2023-03-29T16:18:15.180Z,98582.77
2023-03-29T16:20:20.027Z,98581.99
2023-03-29T16:22:24.432Z,98584.59
2023-03-29T16:24:32.873Z,98582.98
2023-03-29T16:26:36.440Z,98584.22
2023-03-29T16:28:39.189Z,98576.96
2023-03-29T16:30:42.842Z,98575.98
2023-03-29T16:32:47.895Z,98575.75
2023-03-29T16:34:53.591Z,98576.55
2023-03-29T16:36:56.774Z,98574.95
2023-03-29T16:39:00.104Z,98574.64
2023-03-29T16:41:07.569Z,98572.83
2023-03-29T16:43:16.005Z,98568.36
2023-03-29T16:45:21.327Z,98573.69
2023-03-29T16:47:26.073Z,98570.61
2023-03-29T16:49:29.098Z,98576.04
2023-03-29T16:51:32.316Z,98580.09
2023-03-29T16:53:35.626Z,98583.63
2023-03-29T16:55:38.218Z,98581.93
2023-03-29T16:57:42.178Z,98583.20
2023-03-29T16:59:47.539Z,98583.77
2023-03-29T17:01:51.109Z,98585.63
2023-03-29T17:03:54.646Z,98589.23
2023-03-29T17:05:57.976Z,98585.58
2023-03-29T17:08:00.549Z,98585.20
2023-03-29T17:10:09.162Z,98585.70
2023-03-29T17:12:12.168Z,98584.39
2023-03-29T17:14:15.430Z,98581.83
2023-03-29T17:16:19.826Z,98581.33
2023-03-29T17:18:26.759Z,98577.97
2023-03-29T17:20:31.635Z,98576.33
2023-03-29T17:22:41.014Z,98577.31
2023-03-29T17:24:43.622Z,98572.74
2023-03-29T17:26:56.001Z,98573.08
2023-03-29T17:29:01.089Z,98573.15
2023-03-29T17:31:08.747Z,98568.63
2023-03-29T17:33:13.448Z,98568.38
2023-03-29T17:35:15.989Z,98566.81
2023-03-29T17:37:21.224Z,98567.83
2023-03-29T17:39:27.580Z,98565.95
2023-03-29T17:41:32.997Z,98562.31
2023-03-29T17:43:35.705Z,98567.89
2023-03-29T17:45:39.312Z,98570.96
2023-03-29T17:47:42.819Z,98574.23
2023-03-29T17:49:45.305Z,98577.80
2023-03-29T17:51:49.774Z,98578.23
2023-03-29T17:53:54.783Z,98579.56
2023-03-29T17:55:57.365Z,98578.16
2023-03-29T17:58:00.013Z,98579.66
2023-03-29T18:00:02.558Z,98585.38
2023-03-29T18:02:07.501Z,98583.15
2023-03-29T18:04:11.718Z,98584.20
2023-03-29T18:06:19.112Z,98584.08
2023-03-29T18:08:21.567Z,98581.98
2023-03-29T18:10:24.629Z,98580.24
2023-03-29T18:12:33.223Z,98579.38
2023-03-29T18:14:37.006Z,98583.98
2023-03-29T18:16:42.837Z,98583.22
2023-03-29T18:18:46.514Z,98583.84
2023-03-29T18:20:49.454Z,98582.09
2023-03-29T18:22:51.931Z,98579.02
2023-03-29T18:24:55.435Z,98577.38
2023-03-29T18:27:01.258Z,98580.41
2023-03-29T18:29:06.076Z,98574.98
2023-03-29T18:31:12.114Z,98576.02
2023-03-29T18:33:17.252Z,98575.38
2023-03-29T18:35:25.302Z,98573.58
2023-03-29T18:37:28.293Z,98570.98
2023-03-29T18:39:32.106Z,98572.83
2023-03-29T18:41:37.184Z,98567.20
2023-03-29T18:43:40.893Z,98567.68
2023-03-29T18:45:45.705Z,98568.78
2023-03-29T18:47:50.649Z,98569.06
2023-03-29T18:49:56.358Z,98572.02
2023-03-29T18:51:59.201Z,98571.88
2023-03-29T18:54:01.881Z,98572.23
2023-03-29T18:56:07.123Z,98574.08
2023-03-29T18:58:14.725Z,98576.67
2023-03-29T19:00:18.095Z,98575.16
2023-03-29T19:02:22.973Z,98571.00
2023-03-29T19:04:27.529Z,98571.05
2023-03-29T19:06:31.630Z,98563.89
2023-03-29T19:08:41.621Z,98562.42
2023-03-29T19:10:45.511Z,98564.84
2023-03-29T19:12:57.056Z,98562.98
2023-03-29T19:15:01.887Z,98560.26
2023-03-29T19:17:06.642Z,98559.36
2023-03-29T19:19:10.845Z,98554.96
2023-03-29T19:21:16.856Z,98550.80
2023-03-29T19:23:28.876Z,98549.16
2023-03-29T19:25:31.776Z,98546.00
2023-03-29T19:27:35.804Z,98544.31
2023-03-29T19:29:38.946Z,98543.16
2023-03-29T19:31:42.074Z,98543.37
2023-03-29T19:33:51.323Z,98544.48
2023-03-29T19:35:56.679Z,98542.95
2023-03-29T19:38:01.362Z,98541.06
2023-03-29T19:40:06.765Z,98542.98
2023-03-29T19:42:09.864Z,98542.45
2023-03-29T19:44:13.744Z,98538.84
2023-03-29T19:46:17.744Z,98542.33
2023-03-29T19:48:23.959Z,98539.53
2023-03-29T19:50:29.818Z,98534.61
2023-03-29T19:52:33.948Z,98537.37
2023-03-29T19:54:42.523Z,98536.78
2023-03-29T19:56:46.306Z,98530.54
2023-03-29T19:59:01.123Z,98528.00
2023-03-29T20:01:08.355Z,98530.26
2023-03-29T20:03:13.245Z,98521.69
2023-03-29T20:05:21.321Z,98517.67
2023-03-29T20:07:27.620Z,98511.01
2023-03-29T20:09:31.315Z,98507.50
2023-03-29T20:11:34.931Z,98512.92
2023-03-29T20:13:43.264Z,98503.54
2023-03-29T20:15:47.147Z,98512.52
2023-03-29T20:17:54.853Z,98510.84
2023-03-29T20:19:59.146Z,98507.59
2023-03-29T20:22:03.775Z,98513.08
2023-03-29T20:24:08.620Z,98514.59
2023-03-29T20:26:14.188Z,98514.35
2023-03-29T20:28:20.648Z,98523.21
2023-03-29T20:30:25.237Z,98518.09
2023-03-29T20:32:30.410Z,98514.65
2023-03-29T20:34:34.163Z,98502.64
2023-03-29T20:36:38.973Z,98487.36
2023-03-29T20:38:43.485Z,98482.79
2023-03-29T20:40:46.071Z,98479.45
2023-03-29T20:42:49.367Z,98475.16
2023-03-29T20:44:53.740Z,98473.69
2023-03-29T20:47:05.387Z,98471.94
2023-03-29T20:49:08.999Z,98467.44
2023-03-29T20:51:16.030Z,98460.29
2023-03-29T20:53:20.739Z,98464.30
2023-03-29T20:55:25.169Z,98468.57
2023-03-29T20:57:30.397Z,98476.23
2023-03-29T20:59:34.811Z,98486.25
2023-03-29T21:01:40.551Z,98479.04
2023-03-29T21:03:46.400Z,98476.74
2023-03-29T21:05:57.274Z,98471.39
2023-03-29T21:08:02.450Z,98463.33
2023-03-29T21:10:07.047Z,98465.36
2023-03-29T21:12:10.056Z,98471.04
2023-03-29T21:14:23.631Z,98476.16
2023-03-29T21:16:31.312Z,98468.59
2023-03-29T21:18:37.086Z,98469.02
2023-03-29T21:20:41.930Z,98481.78
2023-03-29T21:22:44.512Z,98476.58
2023-03-29T21:24:50.553Z,98480.25
2023-03-29T21:26:54.330Z,98471.20
2023-03-29T21:28:57.939Z,98461.45
2023-03-29T21:31:05.539Z,98454.79
2023-03-29T21:33:09.566Z,98452.62
2023-03-29T21:35:13.291Z,98449.76
2023-03-29T21:37:19.640Z,98450.02
2023-03-29T21:39:26.107Z,98443.98
2023-03-29T21:41:29.894Z,98441.06
2023-03-29T21:43:32.696Z,98435.83
2023-03-29T21:45:36.407Z,98436.38
2023-03-29T21:47:39.751Z,98429.77
2023-03-29T21:49:43.170Z,98425.48
2023-03-29T21:51:46.458Z,98420.64
2023-03-29T21:53:48.974Z,98419.08
2023-03-29T21:55:52.781Z,98416.94
2023-03-29T21:57:55.632Z,98412.28
2023-03-29T21:59:59.143Z,98406.56
2023-03-29T22:02:02.903Z,98409.05
2023-03-29T22:04:06.920Z,98412.77
2023-03-29T22:06:13.683Z,98409.01
2023-03-29T22:08:19.266Z,98407.29
2023-03-29T22:10:25.851Z,98408.65
2023-03-29T22:12:37.971Z,98406.40
2023-03-29T22:14:41.352Z,98401.31
2023-03-29T22:16:49.999Z,98395.27
2023-03-29T22:18:54.335Z,98397.27
2023-03-29T22:21:01.519Z,98399.14
2023-03-29T22:23:07.349Z,98401.66
2023-03-29T22:25:11.818Z,98398.31
2023-03-29T22:27:14.359Z,98393.55
2023-03-29T22:29:17.189Z,98391.70
2023-03-29T22:31:25.984Z,98388.52
2023-03-29T22:33:31.058Z,98388.63
2023-03-29T22:35:35.977Z,98391.70
2023-03-29T22:37:43.516Z,98391.48
2023-03-29T22:39:49.520Z,98385.80
2023-03-29T22:41:52.016Z,98383.05
2023-03-29T22:43:57.732Z,98378.30
2023-03-29T22:46:01.100Z,98377.74
2023-03-29T22:48:05.859Z,98367.90
2023-03-29T22:50:12.280Z,98367.04
2023-03-29T22:52:15.586Z,98371.55
2023-03-29T22:54:18.512Z,98371.60
2023-03-29T22:56:22.144Z,98366.30
2023-03-29T22:58:25.323Z,98369.23
2023-03-29T23:00:35.531Z,98363.55
2023-03-29T23:02:38.165Z,98356.23
2023-03-29T23:04:42.443Z,98350.20
2023-03-29T23:06:56.414Z,98348.62
2023-03-29T23:08:58.965Z,98345.21
2023-03-29T23:11:07.138Z,98347.88
2023-03-29T23:13:10.382Z,98344.27
2023-03-29T23:15:14.557Z,98341.77
2023-03-29T23:17:19.907Z,98338.13
2023-03-29T23:19:27.483Z,98338.95
2023-03-29T23:21:29.955Z,98344.10
2023-03-29T23:23:33.882Z,98342.76
2023-03-29T23:25:38.328Z,98341.63
2023-03-29T23:27:41.304Z,98339.22
2023-03-29T23:29:47.645Z,98335.77
2023-03-29T23:31:50.208Z,98336.58
2023-03-29T23:33:53.185Z,98334.27
2023-03-29T23:35:57.910Z,98330.79
2023-03-29T23:38:00.823Z,98331.06
2023-03-29T23:40:14.140Z,98332.14
2023-03-29T23:42:18.340Z,98328.64
2023-03-29T23:44:20.891Z,98324.63
2023-03-29T23:46:23.642Z,98321.30
2023-03-29T23:48:27.317Z,98323.68
2023-03-29T23:50:33.143Z,98326.00
2023-03-29T23:52:37.851Z,98322.71
2023-03-29T23:54:40.389Z,98319.91
2023-03-29T23:56:44.089Z,98315.57
2023-03-29T23:58:47.289Z,98313.72
